航空気象通報

ウインドサーファーのための航空気象通報による風予報です。

4/9-10の航空気象通報(国内、海外)

2008年04月09日 22時55分55秒 | TAF
羽田空港
TAF RJTT 090847Z 091812 01008KT 8000 -RA FEW008 BKN012 BKN025
TEMPO 2103 3500 -RA BR
BECMG 0003 07010KT
BECMG 0609 05016KT
TEMPO 0912 4000 RA BR
日本時間10日03-09時:010度から8ノットの風
09-12時:風が変化
12-15時:070度から10ノットの風
15-18時:風が変化
18-21時:050度から16ノットの風


那覇空港
TAF AMD ROAH 091115Z 091812 32018KT 9999 FEW010 SCT025
日本時間10日03-21時:320度から18ノットの風


マウイのカフルイ空港
PHOG 091127Z 091212 VRB03KT P6SM SCT030 BKN050
TEMPO 1216 5SM HZ
FM1800 05008KT P6SM VCSH SCT025 BKN040
FM2100 05012KT P6SM VCSH SCT020 BKN040
ハワイ時間9日02-08時:風向不定3ノットの風
08-11時:050度から8ノットの風
11時-5日02時:050度から12ノットの風
、但し、9日02-06時:一時、ヘイズ

サイパン空港
PGSN 091136Z 091212 07011KT P6SM VCSH SCT020 SCT040
マリアナ時間9日22時-10日22時:070度から11ノットの風

コメント